• Join FlightAware (Why Join?)
  • Login
  • US Flag 
01:41AM EDT


 

Airport Tracker/Info


-or-


 

Live Flight TrackerFlight Track Log ✈ UAL118 ✈ 11-Aug-2014 ✈ KORD - EGPH / EDI

Flight Track Log - Related Links

Times and Time Zones

All times are in EDT time to prevent confusion due to time zone crossing. See the UAL118 flight status page for this flight to view local times or setup timezone preferences in your user account.

Time Position Orientation Groundspeed Altitude Reporting Facility
EDT Latitude Longitude Course Direction KTS MPH feet Rate Location/Type
07:32PM 41.9708 -87.9454 278° West 182 209 1,600  Level FlightAware ADS-B (KMDW)
07:32PM 41.9722 -87.9533 292° West 184 212 1,800 1,440 Climbing FlightAware ADS-B (KMDW)
07:33PM 41.9870 -87.9760 319° Northwest 223 257 2,400 1,500 Climbing FlightAware ADS-B (KMDW)
07:33PM 42.0200 -88.0094 339° North 262 302 3,400 2,100 Climbing FlightAware ADS-B (KMDW)
07:34PM 42.0486 -88.0144 359° North 271 312 4,500 2,520 Climbing FlightAware ADS-B (KMDW)
07:34PM 42.0605 -88.0146 North 275 316 4,800 1,140 Climbing FlightAware ADS-B (KMDW)
07:34PM 42.0898 -88.0125 10° North 273 314 5,100 420 Climbing FlightAware ADS-B (KMDW)
07:35PM 42.0976 -88.0105 14° North 272 313 5,100 1,800 Level FlightAware ADS-B (KMDW)
07:35PM 42.1619 -87.9819 20° North 276 318 7,000 2,520 Climbing FlightAware ADS-B (KMDW)
07:36PM 42.2003 -87.9624 20° North 289 333 8,200 1,920 Climbing FlightAware ADS-B (KMDW)
07:36PM 42.2108 -87.9572 20° North 289 333 8,600 2,460 Climbing FlightAware ADS-B (KMDW)
07:37PM 42.2818 -87.9210 21° North 313 360 10,800 2,160 Climbing FlightAware ADS-B (KMDW)
07:37PM 42.3358 -87.8938 21° North 351 404 11,500 1,680 Climbing FlightAware ADS-B (KMDW)
07:38PM 42.3880 -87.8670 21° North 364 419 12,800 2,220 Climbing FlightAware ADS-B (KMDW)
07:39PM 42.4392 -87.8405 21° North 378 435 13,900 1,860 Climbing FlightAware ADS-B (KMDW)
07:39PM 42.4927 -87.8125 21° North 386 444 15,200 2,160 Climbing FlightAware ADS-B (KMDW)
07:40PM 42.5816 -87.7662 21° North 396 456 17,100 2,400 Climbing FlightAware ADS-B (KMDW)
07:41PM 42.6311 -87.7406 21° North 404 465 18,100 1,980 Climbing FlightAware ADS-B (KMDW)
07:41PM 42.6910 -87.7094 21° North 411 473 19,200 1,920 Climbing FlightAware ADS-B (KMKE)
07:42PM 42.7523 -87.6774 21° North 416 479 20,200 1,800 Climbing FlightAware ADS-B (KPWK)
07:42PM 42.8077 -87.6479 24° Northeast 425 489 21,200 1,860 Climbing FlightAware ADS-B (KMDW)
07:42PM 42.8185 -87.6414 29° Northeast 430 495 21,700 1,320 Climbing FlightAware ADS-B (KPWK)
07:43PM 42.8743 -87.5997 32° Northeast 435 501 22,300 1,500 Climbing FlightAware ADS-B (KMDW)
07:44PM 42.9551 -87.5298 33° Northeast 446 513 23,500 1,860 Climbing FlightAware ADS-B (KMDW)
07:44PM 43.0207 -87.4728 33° Northeast 451 519 24,500 1,320 Climbing FlightAware ADS-B (KMDW)
07:45PM 43.0894 -87.4131 33° Northeast 458 527 25,500 1,440 Climbing FlightAware ADS-B (KMDW)
07:46PM 43.1969 -87.3195 32° Northeast 468 539 26,900 1,560 Climbing FlightAware ADS-B (KMDW)
07:47PM 43.2981 -87.2311 33° Northeast 474 545 28,200 1,320 Climbing FlightAware ADS-B (KMDW)
07:47PM 43.3575 -87.1791 33° Northeast 477 549 28,900 1,080 Climbing FlightAware ADS-B (KMDW)
07:48PM 43.4361 -87.1101 33° Northeast 487 560 29,600 900 Climbing FlightAware ADS-B (KMDW)
07:49PM 43.5276 -87.0292 33° Northeast 497 572 30,300 1,200 Climbing FlightAware ADS-B (KMDW)
07:49PM 43.6023 -86.9631 33° Northeast 493 567 31,400 1,440 Climbing FlightAware ADS-B (KMDW)
07:50PM 43.6763 -86.8974 33° Northeast 494 568 32,200 1,260 Climbing FlightAware ADS-B (KMDW)
07:51PM 43.7434 -86.8377 33° Northeast 493 567 33,000 1,260 Climbing FlightAware ADS-B (KMDW)
07:51PM 43.8032 -86.7843 33° Northeast 493 567 33,600 1,200 Climbing FlightAware ADS-B (KMDW)
07:52PM 43.8684 -86.7258 33° Northeast 491 565 34,300 1,020 Climbing FlightAware ADS-B (KMDW)
07:52PM 43.9551 -86.6478 33° Northeast 490 564 35,000 300 Climbing FlightAware ADS-B (KMDW)
07:54PM 44.0822 -86.5269 33° Northeast 490 564 35,000  Level Minneapolis Center
07:55PM 44.1936 -86.4256 33° Northeast 490 564 35,000 -60 Level Minneapolis Center
07:56PM 44.3053 -86.3247 33° Northeast 483 556 34,900 -60 Descending Minneapolis Center
07:57PM 44.4375 -86.2033 33° Northeast 477 549 34,900  Level Minneapolis Center
07:58PM 44.5483 -86.1028 33° Northeast 477 549 34,900  Level Minneapolis Center
07:59PM 44.6631 -85.9967 33° Northeast 477 549 35,000  Climbing Minneapolis Center
08:00PM 44.7750 -85.8925 33° Northeast 480 552 35,000  Level Minneapolis Center
08:01PM 44.8889 -85.7861 33° Northeast 487 560 35,000  Level Minneapolis Center
08:02PM 45.0019 -85.6797 34° Northeast 487 560 35,000 -60 Level Minneapolis Center
08:03PM 45.1256 -85.5642 33° Northeast 488 562 34,900 -60 Descending Minneapolis Center
08:04PM 45.2397 -85.4558 34° Northeast 490 564 34,900  Level Minneapolis Center
08:05PM 45.3556 -85.3475 33° Northeast 496 571 35,000  Climbing Minneapolis Center
08:06PM 45.4933 -85.2144 34° Northeast 497 572 34,900  Descending Minneapolis Center
08:07PM 45.6094 -85.1031 34° Northeast 501 577 35,000  Climbing Minneapolis Center
08:08PM 45.7261 -84.9900 34° Northeast 503 579 34,900 -60 Descending Minneapolis Center
08:09PM 45.8436 -84.8781 34° Northeast 504 580 34,900  Level Minneapolis Center
08:10PM 45.9586 -84.7628 35° Northeast 505 581 35,000  Climbing Minneapolis Center
08:11PM 46.0992 -84.6269 34° Northeast 505 581 34,900  Descending Minneapolis Center
08:12PM 46.1833 -84.5167 42° Northeast 510 587 35,000  Climbing Toronto Center
08:13PM 46.3000 -84.4167 31° Northeast 510 587 35,000  Level Toronto Center
08:14PM 46.4167 -84.3000 35° Northeast 510 587 35,000  Level Toronto Center
08:15PM 46.5333 -84.1667 38° Northeast 500 575 35,000  Level Toronto Center
08:16PM 46.6333 -84.0333 42° Northeast 500 575 35,000  Level Toronto Center
08:17PM 46.7333 -83.8833 46° Northeast 500 575 35,000  Level Toronto Center
08:18PM 46.8500 -83.7833 30° Northeast 500 575 35,000  Level Toronto Center
08:19PM 46.9500 -83.6333 46° Northeast 510 587 35,000  Level Toronto Center
08:20PM 47.0500 -83.5000 42° Northeast 510 587 35,000  Level Toronto Center
08:21PM 47.1667 -83.3667 38° Northeast 510 587 35,000  Level Toronto Center
08:22PM 47.2833 -83.2167 41° Northeast 500 575 35,000  Level Toronto Center
08:23PM 47.3833 -83.0833 42° Northeast 500 575 35,000  Level Toronto Center
08:24PM 47.4833 -82.9667 38° Northeast 500 575 35,000  Level Toronto Center
08:25PM 47.5833 -82.8167 45° Northeast 500 575 35,000  Level Toronto Center
08:26PM 47.7000 -82.6833 38° Northeast 500 575 35,000  Level Toronto Center
08:28PM 47.9000 -82.4333 40° Northeast 500 575 35,000  Level Montreal Center
08:29PM 48.0000 -82.3000 42° Northeast 500 575 35,000  Level Montreal Center
08:30PM 48.1000 -82.1833 38° Northeast 500 575 35,000  Level Montreal Center
08:31PM 48.2167 -82.0167 44° Northeast 500 575 35,000  Level Montreal Center
08:32PM 48.3000 -81.9000 43° Northeast 500 575 35,000  Level Montreal Center
08:33PM 48.4167 -81.7500 40° Northeast 490 564 35,000  Level Montreal Center
08:34PM 48.5167 -81.6333 38° Northeast 490 564 35,000  Level Montreal Center
08:35PM 48.6333 -81.4833 40° Northeast 490 564 35,000  Level Montreal Center
08:36PM 48.7333 -81.3000 50° Northeast 490 564 35,000  Level Toronto Center
08:37PM 48.8167 -81.1667 46° Northeast 490 564 35,000  Level Toronto Center
08:38PM 48.9167 -81.0667 33° Northeast 490 564 35,000  Level Montreal Center
08:39PM 49.0333 -80.9167 40° Northeast 490 564 35,000  Level Montreal Center
08:40PM 49.1333 -80.7667 44° Northeast 480 552 35,000  Level Montreal Center
08:41PM 49.2167 -80.6333 46° Northeast 480 552 35,000  Level Montreal Center
08:42PM 49.3333 -80.5167 33° Northeast 480 552 35,000  Level Montreal Center
08:43PM 49.4333 -80.3667 44° Northeast 480 552 35,000  Level Montreal Center
08:44PM 49.5333 -80.2167 44° Northeast 480 552 35,000  Level Montreal Center
08:45PM 49.6333 -80.0667 44° Northeast 480 552 35,000  Level Montreal Center
08:46PM 49.7167 -79.9500 42° Northeast 480 552 35,000  Level Montreal Center
08:47PM 49.8333 -79.8000 40° Northeast 480 552 35,000  Level Montreal Center
08:49PM 50.0167 -79.5000 46° Northeast 480 552 35,000  Level Montreal Center
08:50PM 50.1167 -79.3500 44° Northeast 480 552 35,000  Level Montreal Center
08:51PM 50.2167 -79.2333 37° Northeast 480 552 35,000  Level Montreal Center
08:52PM 50.3167 -79.0833 44° Northeast 490 564 35,000  Level Montreal Center
08:53PM 50.4000 -78.9167 52° Northeast 490 564 35,000  Level Montreal Center
08:54PM 50.5000 -78.7667 44° Northeast 480 552 35,000  Level Montreal Center
08:55PM 50.6000 -78.6167 44° Northeast 480 552 35,000  Level Montreal Center
08:56PM 50.7000 -78.4833 40° Northeast 490 564 35,000  Level Montreal Center
08:57PM 50.8000 -78.3333 43° Northeast 480 552 35,000  Level Montreal Center
08:58PM 50.9000 -78.1833 43° Northeast 480 552 35,000  Level Montreal Center
08:59PM 51.0000 -78.0167 46° Northeast 490 564 35,000  Level Montreal Center
09:00PM 51.0833 -77.8667 48° Northeast 480 552 35,000  Level Montreal Center
09:01PM 51.1667 -77.7333 45° Northeast 490 564 35,000  Level Montreal Center
09:02PM 51.2833 -77.5833 39° Northeast 490 564 35,000  Level Montreal Center
09:03PM 51.3833 -77.4167 46° Northeast 480 552 35,000  Level Montreal Center
09:04PM 51.4833 -77.2667 43° Northeast 480 552 35,000 120 Level Montreal Center
09:05PM 51.5667 -77.1000 51° Northeast 500 575 35,300 600 Climbing Montreal Center
09:06PM 51.6667 -76.9500 43° Northeast 470 541 36,200 780 Climbing Montreal Center
09:07PM 51.7500 -76.7833 51° Northeast 490 564 36,900 360 Climbing Montreal Center
09:08PM 51.8500 -76.6167 46° Northeast 510 587 37,000  Climbing Montreal Center
09:09PM 51.9667 -76.4500 41° Northeast 480 552 37,000  Level Montreal Center
09:10PM 52.0667 -76.3000 43° Northeast 490 564 37,000  Level Montreal Center
09:11PM 52.1500 -76.1333 51° Northeast 510 587 37,000  Level Montreal Center
09:12PM 52.2500 -75.9667 46° Northeast 490 564 37,000  Level Montreal Center
09:13PM 52.3500 -75.8333 39° Northeast 490 564 37,000  Level Montreal Center
09:14PM 52.4333 -75.6667 51° Northeast 490 564 37,000  Level Montreal Center
09:15PM 52.5333 -75.5000 45° Northeast 490 564 37,000  Level Montreal Center
09:16PM 52.6333 -75.3333 45° Northeast 480 552 37,000  Level Montreal Center
09:17PM 52.7167 -75.1500 53° Northeast 480 552 37,000  Level Montreal Center
09:18PM 52.8167 -74.9833 45° Northeast 490 564 37,000  Level Montreal Center
09:19PM 52.9000 -74.8500 44° Northeast 470 541 37,000  Level Montreal Center
09:20PM 53.0000 -74.6833 45° Northeast 480 552 37,000  Level Montreal Center
09:21PM 53.0833 -74.5000 53° Northeast 480 552 37,000  Level Montreal Center
09:22PM 53.1833 -74.3333 45° Northeast 490 564 37,000  Level Montreal Center
09:23PM 53.2833 -74.1667 45° Northeast 490 564 37,000  Level Montreal Center
09:24PM 53.3667 -73.9833 53° Northeast 490 564 37,000  Level Montreal Center
09:25PM 53.4500 -73.8167 50° Northeast 490 564 37,000  Level Montreal Center
09:26PM 53.5500 -73.6333 47° Northeast 490 564 37,000  Level Montreal Center
09:27PM 53.6500 -73.5000 38° Northeast 490 564 37,000  Level Montreal Center
09:28PM 53.7333 -73.3167 52° Northeast 490 564 37,000  Level Montreal Center
09:29PM 53.8333 -73.1333 47° Northeast 490 564 37,000  Level Montreal Center
09:30PM 53.9000 -72.9667 56° Northeast 490 564 37,000  Level Montreal Center
09:31PM 54.0000 -72.7833 47° Northeast 480 552 37,000  Level Montreal Center
09:32PM 54.0833 -72.6333 47° Northeast 480 552 37,000  Level Montreal Center
09:33PM 54.1833 -72.4500 47° Northeast 480 552 37,000  Level Montreal Center
09:34PM 54.2667 -72.2667 52° Northeast 480 552 37,000  Level Montreal Center
09:35PM 54.3500 -72.0833 52° Northeast 480 552 37,000  Level Montreal Center
09:36PM 54.4167 -72.0000 36° Northeast 480 552 37,000  Level Gander Center
09:38PM 54.6000 -71.6333 49° Northeast 480 552 37,000  Level Gander Center
09:39PM 54.7000 -71.3833 55° Northeast 480 552 37,000  Level Montreal Center
09:41PM 54.8667 -71.1167 50° Northeast 480 552 37,000  Level Gander Center
09:42PM 54.9667 -70.8500 57° Northeast 460 529 37,000  Level Montreal Center
09:43PM 55.0500 -70.6667 52° Northeast 480 552 37,000  Level Montreal Center
09:44PM 55.1333 -70.5167 46° Northeast 480 552 37,000  Level Montreal Center
09:45PM 55.2167 -70.3167 54° Northeast 480 552 37,000  Level Montreal Center
09:46PM 55.3000 -70.1333 51° Northeast 480 552 37,000  Level Montreal Center
09:47PM 55.3833 -69.9667 49° Northeast 480 552 37,000  Level Montreal Center
09:48PM 55.4667 -69.7833 51° Northeast 480 552 37,000  Level Montreal Center
09:49PM 55.5500 -69.5833 54° Northeast 480 552 37,000  Level Montreal Center
09:51PM 55.7167 -69.2667 47° Northeast 480 552 37,000  Level Gander Center
09:52PM 55.8000 -69.0333 57° Northeast 480 552 37,000  Level Montreal Center
09:53PM 55.8833 -68.8500 51° Northeast 480 552 37,000  Level Montreal Center
09:54PM 55.9667 -68.6500 53° Northeast 480 552 37,000  Level Montreal Center
09:55PM 56.0500 -68.4500 53° Northeast 480 552 37,000  Level Montreal Center
09:56PM 56.1333 -68.2833 48° Northeast 470 541 37,000  Level Montreal Center
09:57PM 56.2000 -68.1667 44° Northeast 480 552 37,000  Level Gander Center
09:58PM 56.2833 -67.9667 53° Northeast 480 552 37,000  Level Gander Center
09:59PM 56.3667 -67.6833 62° Northeast 480 552 37,000  Level Montreal Center
10:00PM 56.4500 -67.5167 48° Northeast 480 552 37,000  Level Montreal Center
10:01PM 56.5333 -67.3667 45° Northeast 480 552 37,000  Level Gander Center
10:02PM 56.6167 -67.1000 60° Northeast 480 552 37,000  Level Montreal Center
10:03PM 56.6833 -67.0000 39° Northeast 490 564 37,000  Level Gander Center
10:04PM 56.7500 -66.8000 59° Northeast 480 552 37,000  Level Gander Center
10:05PM 56.8333 -66.5000 63° Northeast 480 552 37,000  Level Montreal Center
10:06PM 56.9000 -66.3833 44° Northeast 480 552 37,000  Level Gander Center
10:07PM 57.0000 -66.0833 58° Northeast 480 552 37,000  Level Montreal Center
10:08PM 57.0833 -65.8833 52° Northeast 490 564 37,000  Level Montreal Center
10:09PM 57.1500 -65.6667 60° Northeast 490 564 37,000  Level Montreal Center
10:10PM 57.2333 -65.4500 55° Northeast 490 564 37,000  Level Montreal Center
10:11PM 57.3000 -65.2500 58° Northeast 490 564 37,000  Level Montreal Center
10:12PM 57.3667 -65.0500 58° Northeast 490 564 37,000  Level Montreal Center
10:13PM 57.4333 -64.9167 47° Northeast 490 564 37,000  Level Gander Center
10:14PM 57.5167 -64.6167 63° Northeast 490 564 37,000  Level Montreal Center
10:15PM 57.6000 -64.4333 50° Northeast 480 552 37,000  Level Montreal Center
10:16PM 57.6667 -64.2833 50° Northeast 490 564 37,000  Level Gander Center
10:17PM 57.7167 -64.0667 67° East 490 564 37,000  Level Gander Center
10:18PM 57.8167 -63.7667 58° Northeast 480 552 37,000  Level Montreal Center
10:19PM 57.9000 -63.5333 56° Northeast 490 564 37,000  Level Montreal Center
10:20PM 57.9500 -63.3333 65° Northeast 480 552 37,000  Level Montreal Center
10:21PM 58.0167 -63.1167 60° Northeast 490 564 37,000  Level Montreal Center
10:22PM 58.0833 -62.9000 60° Northeast 490 564 37,000  Level Montreal Center
10:23PM 58.1500 -62.7333 53° Northeast 480 552 37,000  Level Gander Center
10:25PM 58.2833 -62.3000 60° Northeast 490 564 37,000  Level Gander Center
10:26PM 58.3500 -62.0167 66° East 480 552 37,000  Level Montreal Center
10:27PM 58.4167 -61.8500 53° Northeast 490 564 37,000  Level Gander Center
10:28PM 58.4833 -61.6333 59° Northeast 490 564 37,000  Level Gander Center
10:29PM 58.5500 -61.4167 59° Northeast 490 564 37,000  Level Gander Center
10:30PM 58.6167 -61.1833 61° Northeast 490 564 37,000  Level Gander Center
10:31PM 58.6667 -60.9000 71° East 490 564 37,000  Level Montreal Center
10:32PM 58.7500 -60.7000 51° Northeast 490 564 37,000  Level Gander Center
10:32PM 58.7500 -60.7000 51° Northeast 490 564 37,000  Level Gander Center
10:33PM 58.8000 -60.4167 71° East 480 552 37,000  Level Montreal Center
10:34PM 58.8667 -60.2000 59° Northeast 480 552 37,000  Level Montreal Center
10:35PM 58.9333 -60.0833 42° Northeast 480 552 37,000  Level Gander Center
10:36PM 58.9833 -59.8667 66° East 480 552 37,000  Level Gander Center
10:37PM 59.0500 -59.6333 61° Northeast 480 552 37,000  Level Gander Center
10:38PM 59.1000 -59.3667 70° East 480 552 37,000  Level Gander Center
10:39PM 59.1667 -59.1333 61° Northeast 480 552 37,000  Level Gander Center
10:40PM 59.2333 -58.9000 61° Northeast 480 552 37,000  Level Gander Center
10:41PM 59.3000 -58.6667 61° Northeast 480 552 37,000  Level Gander Center
10:42PM 59.3500 -58.4667 64° Northeast 480 552 37,000  Level Gander Center
10:43PM 59.4000 -58.2000 70° East 480 552 37,000  Level Gander Center
10:44PM 59.4667 -58.0000 57° Northeast 480 552 37,000  Level Gander Center
10:45PM 59.5167 -57.7667 67° East 470 541 37,000  Level Gander Center
10:46PM 59.5667 -57.5000 70° East 470 541 37,000  Level Gander Center
10:47PM 59.6333 -57.2667 60° Northeast 470 541 37,000  Level Gander Center
10:48PM 59.6833 -57.0333 67° East 470 541 37,000  Level Gander Center
10:49PM 59.7333 -56.8167 65° Northeast 470 541 37,000  Level Gander Center
10:50PM 59.7833 -56.5833 67° East 470 541 37,000  Level Gander Center
10:51PM 59.8500 -56.3500 60° Northeast 470 541 37,000  Level Gander Center
10:52PM 59.8667 -56.0833 83° East 470 541 37,000  Level Gander Center
10:53PM 59.9333 -55.8333 62° Northeast 470 541 37,000  Level Gander Center
10:54PM 59.9667 -55.6000 74° East 470 541 37,000  Level Gander Center
10:55PM 60.0333 -55.3833 58° Northeast 470 541 37,000  Level Gander Center
10:56PM 60.1000 -55.1333 62° Northeast 470 541 37,000  Level Gander Center
10:57PM 60.1333 -54.9000 74° East 470 541 37,000  Level Gander Center
10:59PM 60.1877 -54.5612 68° East  Level FlightAware Approximate
11:06PM 60.5081 -52.8731 69° East  Level FlightAware Approximate
11:07PM 60.5528 -52.6297 69° East  Level FlightAware Approximate
11:08PM 60.5970 -52.3857 70° East  Level FlightAware Approximate
11:09PM 60.6408 -52.1410 70° East  Level FlightAware Approximate
11:10PM 60.6841 -51.8956 70° East  Level FlightAware Approximate
11:11PM 60.7270 -51.6496 70° East  Level FlightAware Approximate
11:12PM 60.7694 -51.4029 71° East  Level FlightAware Approximate
11:13PM 60.8113 -51.1556 71° East  Level FlightAware Approximate
11:14PM 60.8529 -50.9076 71° East  Level FlightAware Approximate
11:15PM 60.8939 -50.6590 71° East  Level FlightAware Approximate
11:16PM 60.9345 -50.4098 71° East  Level FlightAware Approximate
11:17PM 60.9746 -50.1599 72° East  Level FlightAware Approximate
11:18PM 61.0035 -49.9050 86° East  Level FlightAware Approximate
11:19PM 61.0128 -49.6429 86° East  Level FlightAware Approximate
11:20PM 61.0215 -49.3806 86° East  Level FlightAware Approximate
11:21PM 61.0298 -49.1183 86° East  Level FlightAware Approximate
11:22PM 61.0376 -48.8558 86° East  Level FlightAware Approximate
11:23PM 61.0448 -48.5931 87° East  Level FlightAware Approximate
11:24PM 61.0515 -48.3304 87° East  Level FlightAware Approximate
11:25PM 61.0578 -48.0675 87° East  Level FlightAware Approximate
11:26PM 61.0635 -47.8045 87° East  Level FlightAware Approximate
11:27PM 61.0687 -47.5415 88° East  Level FlightAware Approximate
11:28PM 61.0733 -47.2784 88° East  Level FlightAware Approximate
11:29PM 61.0775 -47.0151 88° East  Level FlightAware Approximate
11:30PM 61.0812 -46.7519 88° East  Level FlightAware Approximate
11:31PM 61.0844 -46.4885 88° East  Level FlightAware Approximate
11:32PM 61.0870 -46.2252 89° East  Level FlightAware Approximate
11:33PM 61.0891 -45.9618 89° East  Level FlightAware Approximate
11:34PM 61.0907 -45.6983 89° East  Level FlightAware Approximate
11:35PM 61.0918 -45.4348 89° East  Level FlightAware Approximate
11:36PM 61.0924 -45.1714 90° East  Level FlightAware Approximate
11:37PM 61.0925 -44.9079 90° East  Level FlightAware Approximate
11:38PM 61.0921 -44.6444 90° East  Level FlightAware Approximate
11:39PM 61.0911 -44.3809 90° East  Level FlightAware Approximate
11:40PM 61.0897 -44.1175 91° East  Level FlightAware Approximate
11:41PM 61.0877 -43.8540 91° East  Level FlightAware Approximate
11:42PM 61.0852 -43.5906 91° East  Level FlightAware Approximate
11:43PM 61.0822 -43.3273 91° East  Level FlightAware Approximate
11:44PM 61.0787 -43.0640 91° East  Level FlightAware Approximate
11:45PM 61.0747 -42.8008 92° East  Level FlightAware Approximate
11:46PM 61.0701 -42.5376 92° East  Level FlightAware Approximate
11:47PM 61.0651 -42.2745 92° East  Level FlightAware Approximate
11:48PM 61.0595 -42.0116 92° East  Level FlightAware Approximate
11:49PM 61.0535 -41.7487 93° East  Level FlightAware Approximate
11:50PM 61.0469 -41.4859 93° East  Level FlightAware Approximate
11:51PM 61.0398 -41.2232 93° East  Level FlightAware Approximate
11:52PM 61.0322 -40.9607 93° East  Level FlightAware Approximate
11:53PM 61.0241 -40.6982 94° East  Level FlightAware Approximate
11:54PM 61.0155 -40.4360 94° East  Level FlightAware Approximate
11:55PM 61.0063 -40.1738 94° East  Level FlightAware Approximate
11:56PM 60.9945 -39.9123 97° East  Level FlightAware Approximate
11:57PM 60.9780 -39.6519 97° East  Level FlightAware Approximate
11:58PM 60.9610 -39.3918 98° East  Level FlightAware Approximate
11:59PM 60.9435 -39.1319 98° East  Level FlightAware Approximate
12:00AM 60.9255 -38.8724 98° East  Level FlightAware Approximate
12:01AM 60.9070 -38.6132 98° East  Level FlightAware Approximate
12:02AM 60.8880 -38.3542 98° East  Level FlightAware Approximate
12:03AM 60.8684 -38.0956 99° East  Level FlightAware Approximate
12:04AM 60.8484 -37.8373 99° East  Level FlightAware Approximate
12:05AM 60.8279 -37.5793 99° East  Level FlightAware Approximate
12:06AM 60.8069 -37.3216 99° East  Level FlightAware Approximate
12:07AM 60.7854 -37.0643 100° East  Level FlightAware Approximate
12:08AM 60.7635 -36.8074 100° East  Level FlightAware Approximate
12:09AM 60.7410 -36.5508 100° East  Level FlightAware Approximate
12:10AM 60.7180 -36.2945 100° East  Level FlightAware Approximate
12:11AM 60.6946 -36.0387 100° East  Level FlightAware Approximate
12:12AM 60.6707 -35.7832 101° East  Level FlightAware Approximate
12:13AM 60.6462 -35.5281 101° East  Level FlightAware Approximate
12:14AM 60.6213 -35.2733 101° East  Level FlightAware Approximate
12:15AM 60.5959 -35.0190 101° East  Level FlightAware Approximate
12:16AM 60.5701 -34.7651 102° East  Level FlightAware Approximate
12:17AM 60.5437 -34.5116 102° East  Level FlightAware Approximate
12:18AM 60.5169 -34.2585 102° East  Level FlightAware Approximate
12:19AM 60.4896 -34.0058 102° East  Level FlightAware Approximate
12:20AM 60.4618 -33.7536 102° East  Level FlightAware Approximate
12:21AM 60.4335 -33.5018 103° East  Level FlightAware Approximate
12:22AM 60.4048 -33.2504 103° East  Level FlightAware Approximate
12:23AM 60.3756 -32.9995 103° East  Level FlightAware Approximate
12:24AM 60.3461 -32.7490 103° East  Level FlightAware Approximate
12:25AM 60.3172 -32.4983 103° East  Level FlightAware Approximate
12:26AM 60.2878 -32.2482 103° East  Level FlightAware Approximate
12:27AM 60.2579 -31.9985 103° East  Level FlightAware Approximate
12:28AM 60.2276 -31.7492 104° East  Level FlightAware Approximate
12:29AM 60.1968 -31.5004 104° East  Level FlightAware Approximate
12:30AM 60.1656 -31.2521 104° East  Level FlightAware Approximate
12:31AM 60.1339 -31.0043 104° East  Level FlightAware Approximate
12:32AM 60.1017 -30.7569 105° East  Level FlightAware Approximate
12:33AM 60.0691 -30.5100 105° East  Level FlightAware Approximate
12:34AM 60.0360 -30.2637 105° East  Level FlightAware Approximate
12:35AM 60.0024 -30.0178 105° East  Level FlightAware Approximate
12:36AM 59.9858 -29.7654 97° East  Level FlightAware Approximate
12:37AM 59.9700 -29.5128 97° East  Level FlightAware Approximate
12:38AM 59.9537 -29.2605 97° East  Level FlightAware Approximate
12:39AM 59.9370 -29.0090 97° East  Level FlightAware Approximate
12:40AM 59.9198 -28.7577 98° East  Level FlightAware Approximate
12:41AM 59.9022 -28.5067 98° East  Level FlightAware Approximate
12:42AM 59.8840 -28.2560 98° East  Level FlightAware Approximate
12:43AM 59.8654 -28.0055 98° East  Level FlightAware Approximate
12:44AM 59.8463 -27.7553 99° East  Level FlightAware Approximate
12:45AM 59.8268 -27.5055 99° East  Level FlightAware Approximate
12:46AM 59.8067 -27.2559 99° East  Level FlightAware Approximate
12:47AM 59.7862 -27.0066 99° East  Level FlightAware Approximate
12:48AM 59.7652 -26.7576 99° East  Level FlightAware Approximate
12:49AM 59.7438 -26.5090 100° East  Level FlightAware Approximate
12:50AM 59.7218 -26.2607 100° East  Level FlightAware Approximate
12:51AM 59.6994 -26.0126 100° East  Level FlightAware Approximate
12:52AM 59.6766 -25.7650 100° East  Level FlightAware Approximate
12:53AM 59.6533 -25.5177 100° East  Level FlightAware Approximate
12:54AM 59.6295 -25.2707 101° East  Level FlightAware Approximate
12:55AM 59.6052 -25.0240 101° East  Level FlightAware Approximate
12:56AM 59.5805 -24.7778 101° East  Level FlightAware Approximate
12:57AM 59.5553 -24.5319 101° East  Level FlightAware Approximate
12:58AM 59.5297 -24.2864 102° East  Level FlightAware Approximate
12:59AM 59.5036 -24.0412 102° East  Level FlightAware Approximate
01:00AM 59.4771 -23.7964 102° East  Level FlightAware Approximate
01:01AM 59.4500 -23.5520 102° East  Level FlightAware Approximate
01:02AM 59.4226 -23.3081 102° East  Level FlightAware Approximate
01:03AM 59.3947 -23.0645 103° East  Level FlightAware Approximate
01:04AM 59.3663 -22.8213 103° East  Level FlightAware Approximate
01:05AM 59.3375 -22.5785 103° East  Level FlightAware Approximate
01:06AM 59.3082 -22.3361 103° East  Level FlightAware Approximate
01:07AM 59.2785 -22.0942 103° East  Level FlightAware Approximate
01:08AM 59.2483 -21.8527 104° East  Level FlightAware Approximate
01:09AM 59.2177 -21.6116 104° East  Level FlightAware Approximate
01:10AM 59.1866 -21.3709 104° East  Level FlightAware Approximate
01:11AM 59.1551 -21.1307 104° East  Level FlightAware Approximate
01:12AM 59.1231 -20.8910 104° East  Level FlightAware Approximate
01:13AM 59.0908 -20.6516 105° East  Level FlightAware Approximate
01:14AM 59.0579 -20.4128 105° East  Level FlightAware Approximate
01:15AM 59.0247 -20.1744 105° East  Level FlightAware Approximate
01:16AM 58.9930 -19.9354 102° East  Level FlightAware Approximate
01:17AM 58.9668 -19.6942 102° East  Level FlightAware Approximate
01:18AM 58.9400 -19.4533 102° East  Level FlightAware Approximate
01:19AM 58.9128 -19.2128 102° East  Level FlightAware Approximate
01:20AM 58.8852 -18.9727 102° East  Level FlightAware Approximate
01:21AM 58.8571 -18.7330 103° East  Level FlightAware Approximate
01:22AM 58.8286 -18.4936 103° East  Level FlightAware Approximate
01:23AM 58.7997 -18.2547 103° East  Level FlightAware Approximate
01:24AM 58.7703 -18.0162 103° East  Level FlightAware Approximate
01:25AM 58.7404 -17.7780 103° East  Level FlightAware Approximate
01:26AM 58.7102 -17.5403 104° East  Level FlightAware Approximate
01:27AM 58.6794 -17.3030 104° East  Level FlightAware Approximate
01:28AM 58.6483 -17.0661 104° East  Level FlightAware Approximate
01:29AM 58.6167 -16.8297 104° East  Level FlightAware Approximate
01:30AM 58.5847 -16.5936 104° East  Level FlightAware Approximate
01:31AM 58.5522 -16.3580 105° East  Level FlightAware Approximate
01:32AM 58.5193 -16.1229 105° East  Level FlightAware Approximate
01:33AM 58.4860 -15.8881 105° East  Level FlightAware Approximate
01:34AM 58.4523 -15.6539 105° East  Level FlightAware Approximate
01:35AM 58.4182 -15.4201 105° East  Level FlightAware Approximate
01:36AM 58.3836 -15.1873 106° East  Level FlightAware Approximate
01:37AM 58.3487 -14.9549 106° East  Level FlightAware Approximate
01:38AM 58.3134 -14.7230 106° East  Level FlightAware Approximate
01:39AM 58.2776 -14.4916 106° East  Level FlightAware Approximate
01:40AM 58.2414 -14.2606 106° East  Level FlightAware Approximate
01:41AM 58.2048 -14.0301 107° East  Level FlightAware Approximate
01:42AM 58.1678 -13.8001 107° East  Level FlightAware Approximate
01:43AM 58.1304 -13.5706 107° East  Level FlightAware Approximate
01:44AM 58.0925 -13.3415 107° East  Level FlightAware Approximate
01:45AM 58.0543 -13.1130 107° East  Level FlightAware Approximate
01:46AM 58.0156 -12.8849 108° East  Level FlightAware Approximate
01:47AM 57.9766 -12.6573 108° East  Level FlightAware Approximate
01:48AM 57.9371 -12.4303 108° East  Level FlightAware Approximate
01:49AM 57.8972 -12.2037 108° East  Level FlightAware Approximate
01:50AM 57.8569 -11.9776 108° East  Level FlightAware Approximate
01:51AM 57.8163 -11.7521 109° East  Level FlightAware Approximate
01:52AM 57.7752 -11.5270 109° East  Level FlightAware Approximate
01:53AM 57.7337 -11.3025 109° East  Level FlightAware Approximate
01:54AM 57.6919 -11.0785 109° East  Level FlightAware Approximate
01:55AM 57.6496 -10.8550 109° East  Level FlightAware Approximate
01:56AM 57.6069 -10.6320 110° East  Level FlightAware Approximate
01:57AM 57.5639 -10.4096 110° East  Level FlightAware Approximate
01:58AM 57.5205 -10.1876 110° East  Level FlightAware Approximate
01:59AM 57.4767 -9.9662 110° East  Level FlightAware Approximate
02:00AM 57.4327 -9.7452 110° East  Level FlightAware Approximate
02:01AM 57.3883 -9.5247 110° East  Level FlightAware Approximate
02:02AM 57.3436 -9.3048 111° Southeast  Level FlightAware Approximate
02:03AM 57.2984 -9.0854 111° Southeast  Level FlightAware Approximate
02:04AM 57.2529 -8.8665 111° Southeast  Level FlightAware Approximate
02:04AM 56.9692 -9.6185 102° East 448 516 38,000  Level FlightAware ADS-B (EGPF / GLA)
02:04AM 56.9533 -9.4745 101° East 449 517 38,000  Level FlightAware ADS-B (EGPF / GLA)
02:05AM 56.9379 -9.3216 100° East 450 518 38,000  Level FlightAware ADS-B (EGPF / GLA)
02:06AM 56.9222 -9.1657 100° East 453 521 38,000  Level FlightAware ADS-B (EGPF / GLA)
02:06AM 56.9071 -9.0162 101° East 454 522 38,000  Level FlightAware ADS-B (EGPF / GLA)
02:07AM 56.8912 -8.8636 101° East 454 522 38,000  Level FlightAware ADS-B (EGPF / GLA)
02:08AM 56.8754 -8.7154 100° East 453 521 38,000 -120 Level FlightAware ADS-B (EGPF / GLA)
02:08AM 56.8457 -8.6456 100° East 456 525 37,900  Descending FlightAware UK
02:08AM 56.8594 -8.5673 100° East 454 522 38,000 120 Climbing FlightAware ADS-B (EGPF / GLA)
02:09AM 56.8455 -8.4402 101° East 456 525 38,000  Level FlightAware ADS-B (EGPH / EDI)
02:10AM 56.8263 -8.2658 101° East 454 522 38,000 -120 Level FlightAware ADS-B (EGPF / GLA)
02:10AM 56.7955 -8.1937 101° East 456 525 37,900  Descending FlightAware UK
02:10AM 56.8091 -8.1136 101° East 454 522 38,000 120 Climbing FlightAware ADS-B (EGPF / GLA)
02:11AM 56.7964 -8.0018 102° East 456 525 38,000  Level FlightAware ADS-B (EGAE / LDY)
02:11AM 56.7834 -7.8884 101° East 455 524 38,000  Level FlightAware ADS-B (EGPF / GLA)
02:12AM 56.7698 -7.7704 102° East 457 526 38,000  Level FlightAware ADS-B (EGPH / EDI)
02:13AM 56.7552 -7.6465 102° East 458 527 38,000  Level FlightAware ADS-B (EGOQ)
02:13AM 56.7350 -7.4743 102° East 458 527 38,000  Level FlightAware ADS-B (EGOQ)
02:14AM 56.7217 -7.3629 102° East 460 529 38,000  Level FlightAware ADS-B (EGPF / GLA)
02:14AM 56.7064 -7.2356 102° East 461 531 38,000  Level FlightAware ADS-B (EGPF / GLA)
02:15AM 56.6898 -7.0996 103° East 462 532 38,000  Level FlightAware ADS-B (EGOQ)
02:15AM 56.6766 -6.9914 103° East 462 532 38,000  Level FlightAware ADS-B (EGPF / GLA)
02:16AM 56.6578 -6.8411 103° East 462 532 38,000 -120 Level FlightAware ADS-B (EGPF / GLA)
02:16AM 56.6476 -6.7580 102° East 460 529 37,900 -600 Descending FlightAware ADS-B (EGPF / GLA)
02:17AM 56.6391 -6.6910 102° East 459 528 37,600 -1,620 Descending FlightAware ADS-B (EGPK / PIK)
02:17AM 56.6275 -6.5982 103° East 465 535 36,800 -1,320 Descending FlightAware ADS-B (EGOQ)
02:18AM 56.6098 -6.4598 103° East 458 527 36,300 -1,080 Descending FlightAware ADS-B (EGPF / GLA)
02:18AM 56.5963 -6.3541 103° East 457 526 35,600 -1,620 Descending FlightAware ADS-B (EGOQ)
02:18AM 56.5904 -6.3094 102° East 455 524 35,200 -2,640 Descending FlightAware ADS-B (EGPF / GLA)
02:19AM 56.5808 -6.2358 102° East 458 527 34,300 -3,000 Descending FlightAware ADS-B (EGPF / GLA)
02:19AM 56.5707 -6.1578 102° East 460 529 33,200 -3,180 Descending FlightAware ADS-B (EGPF / GLA)
02:19AM 56.5612 -6.0847 102° East 465 535 32,200 -3,300 Descending FlightAware ADS-B (EGPF / GLA)
02:20AM 56.5538 -6.0278 102° East 467 537 31,300 -3,420 Descending FlightAware ADS-B (EGPK / PIK)
02:20AM 56.5411 -5.9306 103° East 470 541 29,900 -4,740 Descending FlightAware ADS-B (EGPF / GLA)
02:20AM 56.5398 -5.9206 103° East 471 542 29,100 -2,520 Descending FlightAware ADS-B (EGAE / LDY)
02:21AM 56.5339 -5.8770 104° East 464 534 28,500 -1,860 Descending FlightAware ADS-B (EGPF / GLA)
02:21AM 56.5034 -5.6525 104° East 455 524 26,900 -2,400 Descending FlightAware ADS-B (EGPH / EDI)
02:21AM 56.5003 -5.6303 103° East 452 520 26,700 -2,880 Descending FlightAware ADS-B (EGPF / GLA)
02:22AM 56.4943 -5.5864 103° East 450 518 26,100 -2,220 Descending FlightAware ADS-B (EGPF / GLA)
02:22AM 56.4907 -5.5601 103° East 447 514 26,000 -2,040 Descending FlightAware ADS-B (EGPF / GLA)
02:22AM 56.4807 -5.4870 103° East 443 510 25,200 -2,220 Descending FlightAware ADS-B (EGPF / GLA)
02:22AM 56.4706 -5.4130 103° East 439 505 24,500 -2,220 Descending FlightAware ADS-B (EGPF / GLA)
02:23AM 56.4610 -5.3435 103° East 435 501 23,700 -2,400 Descending FlightAware ADS-B (EGPF / GLA)
02:23AM 56.4510 -5.2724 103° East 442 509 22,900 -1,860 Descending FlightAware ADS-B (EGPF / GLA)
02:23AM 56.4414 -5.2031 104° East 440 506 22,500 -1,260 Descending FlightAware ADS-B (EGPF / GLA)
02:24AM 56.4368 -5.1689 103° East 435 501 22,300 -1,140 Descending FlightAware ADS-B (EGPK / PIK)
02:24AM 56.4308 -5.1262 104° East 434 499 22,100 -1,440 Descending FlightAware ADS-B (EGPF / GLA)
02:24AM 56.4217 -5.0611 103° East 428 493 21,600 -1,500 Descending FlightAware ADS-B (EGPF / GLA)
02:24AM 56.4167 -5.0266 103° East 426 490 21,400 -1,140 Descending FlightAware ADS-B (EGPK / PIK)
02:24AM 56.4112 -4.9880 104° East 425 489 21,200 -1,800 Descending FlightAware ADS-B (EGPF / GLA)
02:25AM 56.4084 -4.9687 105° East 423 487 20,900 -2,040 Descending FlightAware ADS-B (EGPG)
02:25AM 56.4067 -4.9566 103° East 418 481 20,900 -1,740 Level FlightAware ADS-B (EGPK / PIK)
02:25AM 56.4019 -4.9228 105° East 417 480 20,500 -2,280 Descending FlightAware ADS-B (EGPF / GLA)
02:25AM 56.3871 -4.8208 104° East 409 471 19,400 -2,100 Descending FlightAware ADS-B (EGPK / PIK)
02:25AM 56.3823 -4.7876 105° East 409 471 19,100 -2,100 Descending FlightAware ADS-B (EGPF / GLA)
02:26AM 56.3684 -4.6910 105° East 403 464 18,000 -2,400 Descending FlightAware ADS-B (EGPK / PIK)
02:26AM 56.3551 -4.5990 105° East 396 456 16,700 -2,280 Descending FlightAware ADS-B (EGPG)
02:27AM 56.3381 -4.4828 105° East 389 448 15,500 -2,160 Descending FlightAware ADS-B (EGPF / GLA)
02:28AM 56.3226 -4.3776 105° East 383 441 14,100 -2,340 Descending FlightAware ADS-B (EGPG)
02:28AM 56.3054 -4.2619 105° East 383 441 12,800 -2,340 Descending FlightAware ADS-B (EGPG)
02:29AM 56.2924 -4.1745 105° East 383 441 11,700 -2,100 Descending FlightAware ADS-B (EGPF / GLA)
02:29AM 56.2771 -4.0732 105° East 381 438 10,700 -1,260 Descending FlightAware ADS-B (EGPG)
02:30AM 56.2625 -3.9788 109° East 356 410 10,400 -600 Descending FlightAware ADS-B (EGPG)
02:30AM 56.2567 -3.9520 112° Southeast 346 398 10,300 -300 Descending FlightAware ADS-B (EGPK / PIK)
02:30AM 56.2371 -3.8763 115° Southeast 329 379 10,200 -180 Descending FlightAware ADS-B (EGPF / GLA)
02:31AM 56.2311 -3.8540 114° Southeast 317 365 10,200 -240 Level FlightAware ADS-B (EGPK / PIK)
02:31AM 56.2193 -3.8093 115° Southeast 308 354 10,100 -660 Descending FlightAware ADS-B (EGPK / PIK)
02:31AM 56.2079 -3.7675 116° Southeast 307 353 9,800 -960 Descending FlightAware ADS-B (EGPF / GLA)
02:31AM 56.1995 -3.7364 116° Southeast 307 353 9,600 -1,140 Descending FlightAware ADS-B (EGPF / GLA)
02:32AM 56.1894 -3.6983 116° Southeast 307 353 9,200 -1,500 Descending FlightAware ADS-B (EGPG)
02:32AM 56.1788 -3.6583 115° Southeast 307 353 8,800 -1,200 Descending FlightAware ADS-B (EGPF / GLA)
02:32AM 56.1702 -3.6261 115° Southeast 307 353 8,600 -960 Descending FlightAware ADS-B (EGPG)
02:33AM 56.1595 -3.5841 115° Southeast 305 351 8,300 -960 Descending FlightAware ADS-B (EGPF / GLA)
02:33AM 56.1509 -3.5513 115° Southeast 304 350 8,100 -1,080 Descending FlightAware ADS-B (EGPF / GLA)
02:33AM 56.1458 -3.5308 113° Southeast 301 346 7,900 -1,680 Descending FlightAware ADS-B (EGPK / PIK)
02:33AM 56.1436 -3.5220 115° Southeast 304 350 7,800 -1,200 Descending FlightAware ADS-B (EGPG)
02:33AM 56.1345 -3.4852 114° Southeast 304 350 7,500 -1,020 Descending FlightAware ADS-B (EGPG)
02:34AM 56.1260 -3.4508 113° Southeast 301 346 7,300 -840 Descending FlightAware ADS-B (EGPH / EDI)
02:34AM 56.1182 -3.4178 113° Southeast 294 338 7,100 -840 Descending FlightAware ADS-B (EGPF / GLA)
02:34AM 56.1102 -3.3840 113° Southeast 290 334 6,900 -960 Descending FlightAware ADS-B (EGPH / EDI)
02:34AM 56.1013 -3.3438 108° East 287 330 6,600 -1,080 Descending FlightAware ADS-B (EGPF / GLA)
02:34AM 56.0993 -3.3266 93° East 289 333 6,400 -1,200 Descending FlightAware ADS-B (EGPF / GLA)
02:35AM 56.0994 -3.2736 89° East 290 334 6,000 -1,560 Descending FlightAware ADS-B (EGPF / GLA)
02:35AM 56.0998 -3.2374 89° East 293 337 5,500 -1,200 Descending FlightAware ADS-B (EGPH / EDI)
02:35AM 56.1001 -3.2013 89° East 288 331 5,400 -600 Descending FlightAware ADS-B (EGPF / GLA)
02:36AM 56.1010 -3.1349 89° East 276 318 5,100 -720 Descending FlightAware ADS-B (EGPF / GLA)
02:36AM 56.1014 -3.1004 89° East 273 314 4,900 -960 Descending FlightAware ADS-B (EGPH / EDI)
02:36AM 56.1013 -3.0791 95° East 272 313 4,700 -840 Descending FlightAware ADS-B (EGPF / GLA)
02:37AM 56.0971 -3.0513 132° Southeast 246 283 4,500 -720 Descending FlightAware ADS-B (EGPF / GLA)
02:37AM 56.0785 -3.0228 164° South 212 244 4,300 -600 Descending FlightAware ADS-B (EGPF / GLA)
02:37AM 56.0660 -3.0230 203° Southwest 170 196 4,200 -720 Descending FlightAware ADS-B (EGPH / EDI)
02:37AM 56.0632 -3.0255 216° Southwest 160 184 4,100 -1,080 Descending FlightAware ADS-B (EGPF / GLA)
02:37AM 56.0555 -3.0439 240° Southwest 144 166 3,800 -900 Descending FlightAware ADS-B (EGPF / GLA)
02:38AM 56.0490 -3.0650 242° Southwest 144 166 3,500 -540 Descending FlightAware ADS-B (EGPF / GLA)
02:38AM 56.0435 -3.0822 240° Southwest 147 169 3,500 -360 Level FlightAware ADS-B (EGPH / EDI)
02:38AM 56.0366 -3.1033 239° Southwest 148 170 3,300 -720 Descending FlightAware ADS-B (EGPF / GLA)
02:39AM 56.0313 -3.1191 238° Southwest 147 169 3,100 -840 Descending FlightAware ADS-B (EGPH / EDI)
02:39AM 56.0205 -3.1505 239° Southwest 139 160 2,700 -720 Descending FlightAware ADS-B (EGPH / EDI)
02:40AM 56.0105 -3.1797 239° Southwest 137 158 2,400 -720 Descending FlightAware ADS-B (EGPH / EDI)
02:40AM 56.0025 -3.2029 239° Southwest 109 125 2,000 -720 Descending FlightAware ADS-B (EGPH / EDI)
02:40AM 55.9987 -3.2135 238° Southwest 104 120 1,900 -600 Descending FlightAware ADS-B (EGPH / EDI)
02:41AM 55.9762 -3.2947 238° Southwest 102 117 1,400 -540 Descending FlightAware UK
02:42AM 55.9815 -3.2628 238° Southwest 107 123 1,300 -540 Descending FlightAware ADS-B (EGPH / EDI)
02:42AM 55.9711 -3.2928 238° Southwest 123 142 900 -660 Descending FlightAware ADS-B (EGPH / EDI)
02:42AM 55.9671 -3.3040 238° Southwest 126 145 700 -720 Descending FlightAware ADS-B (EGPH / EDI)